| time (UTC) | temp C | wind direction | speed KPH | gust KPH | rain 1hr cm | rain 24hr cm | rain mn cm | humidity % | barometer mb |
| 20260906173537 | 25 | 162 | 3.2 | 8.0 | 0.00 | 0.00 | 0.00 | 73 | 1019.1 |
| 20260906172534 | 25 | 204 | 1.6 | 4.8 | 0.00 | 0.00 | 0.00 | 74 | 1019.2 |
| 20260906171550 | 24 | 167 | 1.6 | 6.4 | 0.00 | 0.00 | 0.00 | 74 | 1019.3 |
| 20260906170526 | 24 | 228 | 3.2 | 6.4 | 0.00 | 0.00 | 0.00 | 74 | 1019.6 |
| 20260906165523 | 23 | 215 | 1.6 | 3.2 | 0.00 | 0.00 | 0.00 | 76 | 1019.8 |
| 20260906164540 | 23 | 34 | 1.6 | 6.4 | 0.00 | 0.00 | 0.00 | 76 | 1019.7 |
| 20260906163537 | 22 | 154 | 3.2 | 8.0 | 0.00 | 0.00 | 0.00 | 77 | 1019.7 |
| 20260906162534 | 22 | 127 | 1.6 | 4.8 | 0.00 | 0.00 | 0.00 | 81 | 1019.7 |
| 20260906161530 | 21 | 203 | 3.2 | 8.0 | 0.00 | 0.00 | 0.00 | 80 | 1019.7 |
| 20260906160527 | 21 | 166 | 3.2 | 8.0 | 0.00 | 0.00 | 0.00 | 80 | 1019.7 |
| 20260906155523 | 20 | 120 | 1.6 | 4.8 | 0.00 | 0.00 | 0.00 | 85 | 1019.7 |
| 20260906154520 | 19 | 167 | 3.2 | 9.7 | 0.00 | 0.00 | 0.00 | 84 | 1019.6 |
| 20260906153536 | 20 | 174 | 3.2 | 8.0 | 0.00 | 0.00 | 0.00 | 83 | 1019.6 |
| 20260906152531 | 19 | 166 | 3.2 | 11.3 | 0.00 | 0.00 | 0.00 | 83 | 1019.9 |
| 20260906151529 | 19 | 165 | 3.2 | 9.7 | 0.00 | 0.00 | 0.00 | 83 | 1019.7 |
| 20260906150526 | 18 | 188 | 3.2 | 8.0 | 0.00 | 0.00 | 0.00 | 84 | 1019.5 |
| 20260906145522 | 18 | 206 | 3.2 | 8.0 | 0.00 | 0.00 | 0.00 | 86 | 1019.5 |
| 20260906144518 | 18 | 202 | 1.6 | 9.7 | 0.00 | 0.00 | 0.00 | 88 | 1019.6 |
| 20260906143536 | 17 | 192 | 4.8 | 9.7 | 0.00 | 0.00 | 0.00 | 88 | 1019.8 |
| 20260906142533 | 17 | 117 | 3.2 | 9.7 | 0.00 | 0.00 | 0.00 | 89 | 1019.5 |
| 20260906141529 | 17 | 165 | 1.6 | 8.0 | 0.00 | 0.00 | 0.00 | 91 | 1019.7 |
| 20260906140546 | 16 | 191 | 1.6 | 4.8 | 0.00 | 0.00 | 0.00 | 94 | 1019.9 |
| 20260906135521 | 16 | 171 | 1.6 | 6.4 | 0.00 | 0.00 | 0.00 | 96 | 1020.0 |
| 20260906134518 | 16 | 174 | 3.2 | 9.7 | 0.00 | 0.00 | 0.00 | 99 | 1019.9 |
| 20260906133534 | 16 | 206 | 1.6 | 3.2 | 0.00 | 0.00 | 0.00 | 99 | 1020.0 |
| 20260906132532 | 15 | 191 | 1.6 | 6.4 | 0.00 | 0.00 | 0.00 | 99 | 1020.0 |
| 20260906131529 | 15 | 198 | 1.6 | 4.8 | 0.00 | 0.00 | 0.00 | 99 | 1020.1 |
| 20260906130525 | 15 | 194 | 0.0 | 1.6 | 0.00 | 0.00 | 0.00 | 99 | 1020.1 |
| 20260906125521 | 14 | 243 | 0.0 | 3.2 | 0.00 | 0.00 | 0.00 | 99 | 1020.0 |
| 20260906124519 | 13 | 219 | 0.0 | 4.8 | 0.00 | 0.00 | 0.00 | 99 | 1019.6 |
| 20260906123535 | 13 | 185 | 0.0 | 3.2 | 0.00 | 0.00 | 0.00 | 99 | 1019.4 |
| 20260906122532 | 12 | 219 | 0.0 | 1.6 | 0.00 | 0.00 | 0.00 | 99 | 1019.4 |
| 20260906121528 | 12 | 0.0 | 3.2 | 0.00 | 0.00 | 0.00 | 99 | 1019.4 | |
| 20260906120525 | 12 | 252 | 0.0 | 3.2 | 0.00 | 0.00 | 0.00 | 99 | 1019.3 |
| 20260906115521 | 12 | 182 | 0.0 | 3.2 | 0.00 | 0.00 | 0.00 | 99 | 1019.1 |
| 20260906114517 | 12 | 165 | 0.0 | 1.6 | 0.00 | 0.00 | 0.00 | 99 | 1019.0 |
| 20260906113534 | 12 | 0.0 | 1.6 | 0.00 | 0.00 | 0.00 | 99 | 1019.1 | |
| 20260906112550 | 13 | 221 | 0.0 | 3.2 | 0.00 | 0.00 | 0.00 | 99 | 1019.0 |
| 20260906111527 | 13 | 0.0 | 3.2 | 0.00 | 0.00 | 0.00 | 99 | 1018.9 | |
| 20260906110523 | 13 | 272 | 1.6 | 3.2 | 0.00 | 0.00 | 0.00 | 99 | 1018.8 |
| 20260906105520 | 13 | 192 | 0.0 | 3.2 | 0.00 | 0.00 | 0.00 | 99 | 1018.5 |
| 20260906104518 | 13 | 229 | 0.0 | 3.2 | 0.00 | 0.00 | 0.00 | 99 | 1018.4 |
| 20260906103535 | 13 | 235 | 0.0 | 3.2 | 0.00 | 0.00 | 0.00 | 99 | 1018.4 |
| 20260906102531 | 13 | 200 | 1.6 | 3.2 | 0.00 | 0.00 | 0.00 | 99 | 1018.4 |
| 20260906101527 | 13 | 188 | 1.6 | 3.2 | 0.00 | 0.00 | 0.00 | 99 | 1018.4 |
| 20260906100544 | 13 | 217 | 1.6 | 3.2 | 0.00 | 0.00 | 0.00 | 99 | 1018.4 |
| 20260906095540 | 13 | 193 | 0.0 | 4.8 | 0.00 | 0.00 | 0.00 | 99 | 1018.4 |
| 20260906094538 | 14 | 171 | 0.0 | 3.2 | 0.00 | 0.00 | 0.00 | 99 | 1018.5 |
| 20260906093534 | 14 | 188 | 1.6 | 4.8 | 0.00 | 0.00 | 0.00 | 99 | 1018.4 |
| 20260906092530 | 14 | 153 | 0.0 | 3.2 | 0.00 | 0.00 | 0.00 | 99 | 1018.3 |
| 20260906091548 | 14 | 197 | 1.6 | 4.8 | 0.00 | 0.00 | 0.00 | 99 | 1018.5 |
| 20260906090524 | 14 | 184 | 1.6 | 3.2 | 0.00 | 0.00 | 0.00 | 99 | 1018.2 |
| 20260906085520 | 14 | 161 | 1.6 | 4.8 | 0.00 | 0.00 | 0.00 | 99 | 1018.2 |
| 20260906084557 | 14 | 146 | 1.6 | 8.0 | 0.00 | 0.00 | 0.00 | 99 | 1018.2 |
| 20260906083555 | 14 | 188 | 1.6 | 4.8 | 0.00 | 0.00 | 0.00 | 99 | 1018.2 |
| 20260906082532 | 14 | 206 | 1.6 | 4.8 | 0.00 | 0.00 | 0.00 | 99 | 1018.4 |
| 20260906081547 | 14 | 183 | 3.2 | 6.4 | 0.00 | 0.00 | 0.00 | 99 | 1018.5 |
| 20260906080524 | 14 | 160 | 0.0 | 3.2 | 0.00 | 0.00 | 0.00 | 99 | 1018.5 |
| 20260906075520 | 14 | 185 | 0.0 | 3.2 | 0.00 | 0.00 | 0.00 | 99 | 1018.7 |
| 20260906074538 | 14 | 284 | 0.0 | 3.2 | 0.00 | 0.00 | 0.00 | 99 | 1018.8 |
| 20260906073534 | 14 | 156 | 0.0 | 3.2 | 0.00 | 0.00 | 0.00 | 99 | 1019.0 |
| 20260906072529 | 14 | 255 | 0.0 | 3.2 | 0.00 | 0.00 | 0.00 | 99 | 1018.9 |
| 20260906071548 | 14 | 290 | 1.6 | 3.2 | 0.00 | 0.00 | 0.00 | 99 | 1018.7 |
| 20260906070524 | 14 | 164 | 0.0 | 3.2 | 0.00 | 0.00 | 0.00 | 99 | 1018.5 |
| 20260906065520 | 14 | 254 | 0.0 | 1.6 | 0.00 | 0.00 | 0.00 | 99 | 1018.6 |
| 20260906064537 | 14 | 65 | 0.0 | 1.6 | 0.00 | 0.00 | 0.00 | 99 | 1018.4 |
| 20260906063533 | 14 | 231 | 1.6 | 3.2 | 0.00 | 0.00 | 0.00 | 98 | 1018.4 |
| 20260906062530 | 15 | 145 | 0.0 | 1.6 | 0.00 | 0.00 | 0.00 | 98 | 1018.5 |
| 20260906061526 | 15 | 209 | 0.0 | 3.2 | 0.00 | 0.00 | 0.00 | 98 | 1018.7 |
| 20260906060544 | 15 | 262 | 1.6 | 3.2 | 0.00 | 0.00 | 0.00 | 97 | 1018.7 |
| 20260906055520 | 15 | 267 | 0.0 | 3.2 | 0.00 | 0.00 | 0.00 | 97 | 1018.7 |
| 20260906054537 | 15 | 104 | 0.0 | 3.2 | 0.00 | 0.00 | 0.00 | 97 | 1018.6 |
| 20260906053534 | 15 | 207 | 1.6 | 4.8 | 0.00 | 0.00 | 0.00 | 97 | 1018.4 |
| 20260906052530 | 15 | 196 | 1.6 | 3.2 | 0.00 | 0.00 | 0.00 | 98 | 1018.5 |
| 20260906051526 | 15 | 203 | 1.6 | 3.2 | 0.00 | 0.00 | 0.00 | 98 | 1018.7 |
| 20260906050524 | 15 | 211 | 0.0 | 1.6 | 0.00 | 0.00 | 0.00 | 98 | 1018.7 |
| 20260906045540 | 15 | 208 | 0.0 | 3.2 | 0.00 | 0.00 | 0.00 | 98 | 1018.6 |
| 20260906044536 | 15 | 252 | 0.0 | 3.2 | 0.00 | 0.00 | 0.00 | 98 | 1018.7 |
| 20260906043533 | 15 | 221 | 0.0 | 3.2 | 0.00 | 0.00 | 0.00 | 97 | 1018.8 |
| 20260906042529 | 15 | 234 | 0.0 | 3.2 | 0.00 | 0.00 | 0.00 | 97 | 1019.0 |
| 20260906041526 | 15 | 208 | 1.6 | 3.2 | 0.00 | 0.00 | 0.00 | 96 | 1019.0 |
| 20260906040544 | 15 | 255 | 0.0 | 3.2 | 0.00 | 0.00 | 0.00 | 96 | 1019.0 |
| 20260906035519 | 15 | 209 | 0.0 | 3.2 | 0.00 | 0.00 | 0.00 | 95 | 1018.9 |
| 20260906034535 | 16 | 194 | 0.0 | 3.2 | 0.00 | 0.00 | 0.00 | 95 | 1018.8 |
| 20260906033532 | 16 | 266 | 0.0 | 3.2 | 0.00 | 0.00 | 0.00 | 95 | 1018.7 |
| 20260906032528 | 16 | 193 | 1.6 | 3.2 | 0.00 | 0.00 | 0.00 | 94 | 1018.6 |
| 20260906031525 | 16 | 189 | 1.6 | 4.8 | 0.00 | 0.00 | 0.00 | 94 | 1018.5 |
| 20260906030523 | 16 | 204 | 1.6 | 4.8 | 0.00 | 0.00 | 0.00 | 94 | 1018.3 |
| 20260906025519 | 16 | 221 | 0.0 | 3.2 | 0.00 | 0.00 | 0.00 | 95 | 1018.4 |
| 20260906024535 | 16 | 202 | 1.6 | 3.2 | 0.00 | 0.00 | 0.00 | 95 | 1018.3 |
| 20260906023533 | 16 | 199 | 1.6 | 3.2 | 0.00 | 0.00 | 0.00 | 95 | 1017.9 |
| 20260906022528 | 16 | 199 | 1.6 | 4.8 | 0.00 | 0.00 | 0.00 | 95 | 1017.8 |
| 20260906021524 | 16 | 180 | 1.6 | 4.8 | 0.00 | 0.00 | 0.00 | 95 | 1017.6 |
| 20260906020521 | 16 | 218 | 1.6 | 4.8 | 0.00 | 0.00 | 0.00 | 96 | 1017.5 |
| 20260906015537 | 16 | 273 | 1.6 | 6.4 | 0.00 | 0.00 | 0.00 | 96 | 1017.3 |
| 20260906014533 | 16 | 205 | 1.6 | 6.4 | 0.00 | 0.00 | 0.00 | 96 | 1017.1 |
| 20260906013531 | 16 | 208 | 1.6 | 4.8 | 0.00 | 0.00 | 0.00 | 96 | 1017.1 |
| 20260906012527 | 16 | 227 | 1.6 | 6.4 | 0.00 | 0.00 | 0.00 | 96 | 1017.0 |
| 20260906011524 | 16 | 198 | 1.6 | 4.8 | 0.00 | 0.00 | 0.00 | 96 | 1017.1 |
| 20260906010520 | 16 | 193 | 1.6 | 6.4 | 0.00 | 0.00 | 0.00 | 96 | 1017.0 |
| 20260906005535 | 16 | 181 | 1.6 | 3.2 | 0.00 | 0.00 | 0.00 | 96 | 1017.1 |
| 20260906004532 | 16 | 188 | 1.6 | 6.4 | 0.00 | 0.00 | 0.00 | 95 | 1017.2 |
| 20260906003529 | 16 | 183 | 3.2 | 6.4 | 0.00 | 0.00 | 0.00 | 95 | 1017.0 |
| 20260906002525 | 17 | 200 | 3.2 | 8.0 | 0.00 | 0.00 | 0.00 | 94 | 1016.8 |
| 20260906001542 | 17 | 175 | 1.6 | 8.0 | 0.00 | 0.00 | 0.00 | 94 | 1017.0 |
| 20260906000519 | 17 | 181 | 3.2 | 11.3 | 0.00 | 0.00 | 0.00 | 93 | 1017.1 |
| 20260905235535 | 17 | 196 | 1.6 | 6.4 | 0.00 | 0.00 | 0.00 | 93 | 1017.2 |
| 20260905234530 | 17 | 173 | 1.6 | 6.4 | 0.00 | 0.00 | 0.00 | 93 | 1017.4 |
| 20260905233526 | 17 | 260 | 3.2 | 4.8 | 0.00 | 0.00 | 0.00 | 93 | 1017.5 |
| 20260905232523 | 17 | 196 | 1.6 | 6.4 | 0.00 | 0.00 | 0.00 | 93 | 1017.4 |
| 20260905231520 | 17 | 196 | 3.2 | 8.0 | 0.00 | 0.00 | 0.00 | 92 | 1017.7 |
| 20260905230537 | 17 | 181 | 3.2 | 6.4 | 0.00 | 0.00 | 0.00 | 93 | 1017.9 |
| 20260905225552 | 17 | 200 | 3.2 | 6.4 | 0.00 | 0.00 | 0.00 | 93 | 1017.8 |
| 20260905224529 | 17 | 210 | 1.6 | 6.4 | 0.00 | 0.00 | 0.00 | 93 | 1017.7 |
| 20260905223627 | 17 | 236 | 1.6 | 4.8 | 0.00 | 0.00 | 0.00 | 94 | 1017.8 |
| 20260905222522 | 17 | 201 | 1.6 | 4.8 | 0.00 | 0.00 | 0.00 | 95 | 1017.9 |
| 20260905221520 | 17 | 231 | 1.6 | 6.4 | 0.00 | 0.00 | 0.00 | 95 | 1018.0 |
| 20260905220536 | 17 | 220 | 1.6 | 4.8 | 0.00 | 0.00 | 0.00 | 94 | 1018.0 |
| 20260905215532 | 17 | 184 | 3.2 | 6.4 | 0.00 | 0.00 | 0.00 | 93 | 1018.0 |
| 20260905214548 | 18 | 219 | 3.2 | 6.4 | 0.00 | 0.00 | 0.00 | 93 | 1018.2 |
| 20260905213545 | 18 | 9 | 1.6 | 4.8 | 0.00 | 0.00 | 0.00 | 94 | 1018.2 |
| 20260905212521 | 18 | 166 | 3.2 | 9.7 | 0.00 | 0.00 | 0.00 | 94 | 1018.2 |
| 20260905211517 | 18 | 181 | 3.2 | 6.4 | 0.00 | 0.00 | 0.00 | 94 | 1018.4 |
| 20260905210535 | 17 | 179 | 3.2 | 6.4 | 0.00 | 0.00 | 0.00 | 94 | 1018.5 |
| 20260905205532 | 17 | 195 | 3.2 | 8.0 | 0.00 | 0.00 | 0.00 | 94 | 1018.6 |
| 20260905204528 | 18 | 206 | 3.2 | 6.4 | 0.00 | 0.00 | 0.00 | 94 | 1018.9 |
| 20260905203524 | 17 | 353 | 1.6 | 4.8 | 0.00 | 0.00 | 0.00 | 96 | 1018.7 |
| 20260905202540 | 17 | 210 | 1.6 | 4.8 | 0.00 | 0.00 | 0.00 | 96 | 1018.7 |
| 20260905201518 | 17 | 183 | 3.2 | 6.4 | 0.00 | 0.00 | 0.00 | 96 | 1018.9 |
| 20260905200534 | 17 | 179 | 3.2 | 6.4 | 0.00 | 0.00 | 0.00 | 95 | 1018.9 |
| 20260905195529 | 17 | 211 | 1.6 | 4.8 | 0.00 | 0.00 | 0.00 | 95 | 1018.8 |
| 20260905194526 | 18 | 195 | 3.2 | 6.4 | 0.00 | 0.00 | 0.00 | 95 | 1018.8 |
| 20260905193544 | 17 | 360 | 3.2 | 6.4 | 0.00 | 0.00 | 0.00 | 95 | 1018.7 |
| 20260905192519 | 18 | 185 | 3.2 | 6.4 | 0.00 | 0.00 | 0.00 | 94 | 1018.8 |
| 20260905191555 | 18 | 234 | 3.2 | 6.4 | 0.00 | 0.00 | 0.00 | 95 | 1018.6 |
| 20260905190533 | 18 | 195 | 3.2 | 8.0 | 0.00 | 0.00 | 0.00 | 94 | 1018.6 |
| 20260905185549 | 18 | 190 | 3.2 | 8.0 | 0.00 | 0.00 | 0.00 | 94 | 1018.6 |
| 20260905184545 | 18 | 195 | 3.2 | 6.4 | 0.00 | 0.00 | 0.00 | 94 | 1018.8 |
| 20260905183522 | 18 | 184 | 1.6 | 6.4 | 0.00 | 0.00 | 0.00 | 96 | 1018.5 |
| 20260905182558 | 17 | 228 | 1.6 | 8.0 | 0.00 | 0.00 | 0.00 | 96 | 1018.7 |
| 20260905181535 | 17 | 175 | 3.2 | 6.4 | 0.00 | 0.00 | 0.00 | 96 | 1018.7 |
| 20260905180552 | 17 | 189 | 3.2 | 8.0 | 0.00 | 0.00 | 0.00 | 96 | 1018.8 |
| 20260905175527 | 17 | 188 | 3.2 | 8.0 | 0.00 | 0.00 | 0.00 | 96 | 1018.8 |
| 20260905174525 | 17 | 213 | 3.2 | 6.4 | 0.00 | 0.00 | 0.00 | 96 | 1018.7 |